Time;durP1;ratioP1;P1;durP2;ratioP2;P2;SDS_P1;SDS_P2;PMS_P1;PMS_P2;Temp;Humidity;BMP_temperature;BMP_pressure;BME280_temperature;BME280_humidity;BME280_pressure;Samples;Min_cycle;Max_cycle;Signal;HPM_P1;HPM_P2
2022/08/08 00:01:28;;;;;;;2.08;1.00;;;;;;;21.18;50.51;100622.66;5548379;32;33350;-68
2022/08/08 00:05:10;;;;;;;2.17;1.02;;;;;;;21.13;51.56;100626.06;5549035;32;34188;-68
2022/08/08 00:08:30;;;;;;;7.57;1.50;;;;;;;21.10;52.28;100614.88;5552015;32;33956;-68
2022/08/08 00:11:41;;;;;;;3.92;1.20;;;;;;;21.14;53.82;100608.84;5551619;32;35262;-68
2022/08/08 00:15:33;;;;;;;2.25;1.00;;;;;;;21.35;55.14;100609.34;5551949;32;33984;-68
2022/08/08 00:19:26;;;;;;;2.75;1.45;;;;;;;21.19;54.60;100592.78;5551687;32;34690;-68
2022/08/08 00:22:35;;;;;;;3.10;1.12;;;;;;;21.23;55.79;100588.53;5550540;32;34292;-68
2022/08/08 00:25:46;;;;;;;2.45;1.05;;;;;;;21.22;55.94;100596.87;5551007;32;33010;-68
2022/08/08 00:29:01;;;;;;;2.47;1.15;;;;;;;21.15;56.06;100597.00;5550599;32;33995;-67
2022/08/08 00:32:32;;;;;;;3.53;1.30;;;;;;;21.30;55.00;100601.12;5551523;32;34611;-67
2022/08/08 00:35:46;;;;;;;2.30;1.20;;;;;;;21.40;54.54;100587.84;5528366;32;34612;-68
2022/08/08 00:39:05;;;;;;;3.83;1.08;;;;;;;21.39;54.91;100576.25;5550120;32;33406;-68
2022/08/08 00:42:37;;;;;;;4.43;1.20;;;;;;;21.39;56.10;100575.44;5551521;32;35126;-67
2022/08/08 00:46:02;;;;;;;5.07;1.35;;;;;;;21.40;56.11;100574.34;5551427;32;34188;-68
2022/08/08 00:49:43;;;;;;;3.15;1.00;;;;;;;21.43;56.41;100582.81;5550772;32;32731;-68
2022/08/08 00:53:19;;;;;;;2.87;1.10;;;;;;;21.45;56.30;100586.09;5551382;32;34123;-68
2022/08/08 00:57:01;;;;;;;1.40;1.10;;;;;;;21.45;55.82;100588.78;5551282;32;34714;-68
2022/08/08 01:00:12;;;;;;;2.85;1.27;;;;;;;21.48;55.78;100582.94;5551636;32;34030;-68
2022/08/08 01:03:36;;;;;;;2.50;1.10;;;;;;;21.49;54.67;100581.91;5551716;32;34352;-68
2022/08/08 01:07:39;;;;;;;3.65;1.30;;;;;;;21.46;53.99;100579.66;5551594;32;33971;-67
2022/08/08 01:11:13;;;;;;;3.22;1.45;;;;;;;21.45;53.99;100575.28;5551198;32;34590;-67
2022/08/08 01:15:07;;;;;;;6.00;1.35;;;;;;;21.43;54.31;100579.31;5551349;32;34470;-68
2022/08/08 01:18:57;;;;;;;2.78;1.10;;;;;;;21.40;54.56;100574.34;5550979;32;33993;-68
2022/08/08 01:22:32;;;;;;;2.67;1.15;;;;;;;21.34;54.67;100578.00;5551025;32;34605;-68
2022/08/08 01:26:16;;;;;;;2.20;1.00;;;;;;;21.44;54.45;100580.94;5551105;32;33989;-68
2022/08/08 01:29:35;;;;;;;4.53;0.93;;;;;;;21.31;54.78;100575.75;5519783;32;34778;-68
2022/08/08 01:33:28;;;;;;;1.83;0.95;;;;;;;21.32;54.73;100572.00;5551358;32;34011;-68
2022/08/08 01:37:22;;;;;;;3.78;1.30;;;;;;;21.34;54.34;100581.53;5550107;32;33687;-68
2022/08/08 01:41:00;;;;;;;1.67;1.00;;;;;;;21.21;54.58;100573.63;5539216;32;32999;-68
2022/08/08 01:44:44;;;;;;;3.23;1.10;;;;;;;21.20;54.52;100575.50;5550168;32;34704;-68
2022/08/08 01:48:08;;;;;;;3.20;1.12;;;;;;;21.17;54.92;100581.38;5549905;32;33373;-68
2022/08/08 01:51:39;;;;;;;1.83;1.10;;;;;;;21.15;55.38;100588.91;5550390;32;34077;-68
2022/08/08 01:55:08;;;;;;;2.20;1.20;;;;;;;21.07;55.83;100589.19;5551090;32;33874;-68
2022/08/08 01:58:37;;;;;;;3.50;1.15;;;;;;;21.03;56.40;100573.69;5550840;32;33865;-68
2022/08/08 02:02:26;;;;;;;2.35;1.20;;;;;;;21.09;56.82;100578.16;5551127;32;33972;-68
2022/08/08 02:06:19;;;;;;;1.30;1.10;;;;;;;20.87;58.29;100560.84;5550721;32;34627;-68
2022/08/08 02:10:26;;;;;;;1.77;1.10;;;;;;;20.81;59.27;100563.44;5551000;32;34640;-68
2022/08/08 02:14:11;;;;;;;2.90;1.20;;;;;;;20.81;60.22;100562.63;5550275;32;34603;-68
2022/08/08 02:17:25;;;;;;;2.00;1.30;;;;;;;20.82;60.50;100556.97;5550275;32;33943;-68
2022/08/08 02:24:28;;;;;;;3.17;1.45;;;;;;;20.76;61.61;100567.88;5550887;32;34235;-68
2022/08/08 02:27:54;;;;;;;1.95;1.33;;;;;;;20.75;61.43;100571.63;5550475;32;34825;-68
2022/08/08 02:31:07;;;;;;;2.55;1.30;;;;;;;20.71;61.62;100565.06;5550585;32;34487;-68
2022/08/08 02:34:59;;;;;;;4.87;1.25;;;;;;;20.69;61.89;100583.31;5550380;32;33922;-68
2022/08/08 02:38:47;;;;;;;4.40;1.10;;;;;;;20.72;61.76;100591.75;5550753;32;34034;-68
2022/08/08 02:42:33;;;;;;;3.10;1.27;;;;;;;20.66;61.66;100591.88;5517548;32;33960;-68
2022/08/08 02:46:13;;;;;;;2.72;1.27;;;;;;;20.58;61.72;100605.66;5549563;32;33191;-68
2022/08/08 02:49:28;;;;;;;1.58;1.20;;;;;;;20.54;61.84;100602.59;5550345;32;34633;-67
2022/08/08 02:52:59;;;;;;;2.75;1.33;;;;;;;20.45;61.86;100603.13;5550334;32;35316;-68
2022/08/08 02:56:47;;;;;;;2.80;1.10;;;;;;;20.35;62.01;100599.09;5550491;32;34652;-68
2022/08/08 03:00:16;;;;;;;;;;;;;;;20.29;62.82;100604.53;5550864;32;34038;-68
2022/08/08 03:03:59;;;;;;;3.42;1.00;;;;;;;20.24;64.69;100605.22;5549452;32;34294;-68
2022/08/08 03:07:23;;;;;;;2.03;1.23;;;;;;;20.24;64.99;100599.81;5549859;32;34070;-68
2022/08/08 03:10:50;;;;;;;2.33;1.45;;;;;;;20.22;65.14;100603.81;5550390;32;34586;-68
2022/08/08 03:14:24;;;;;;;4.85;1.40;;;;;;;20.22;65.28;100609.19;5550016;32;33901;-68
2022/08/08 03:18:19;;;;;;;2.15;1.12;;;;;;;20.20;65.39;100617.50;5549390;32;34012;-68
2022/08/08 03:21:34;;;;;;;3.80;1.40;;;;;;;20.21;65.19;100605.69;5549251;32;34619;-67
2022/08/08 03:24:59;;;;;;;2.60;1.30;;;;;;;20.27;64.75;100617.44;5549811;32;34034;-68
2022/08/08 03:28:42;;;;;;;2.95;1.42;;;;;;;20.29;64.20;100628.78;5549848;32;34683;-68
2022/08/08 03:35:10;;;;;;;1.73;1.33;;;;;;;20.34;62.41;100628.97;5471445;32;34574;-68
2022/08/08 03:38:16;;;;;;;4.15;1.48;;;;;;;20.38;62.63;100624.78;5471216;32;34202;-67
2022/08/08 03:41:39;;;;;;;2.25;1.05;;;;;;;20.36;62.13;100622.31;5472269;32;34425;-67
2022/08/08 03:45:17;;;;;;;1.92;1.17;;;;;;;20.44;62.12;100631.97;5463118;32;34583;-67
2022/08/08 03:48:40;;;;;;;2.87;1.37;;;;;;;20.72;61.62;100629.50;5473243;32;34554;-68
2022/08/08 03:52:03;;;;;;;5.95;1.42;;;;;;;20.58;61.88;100617.25;5473353;32;33718;-67
2022/08/08 03:55:16;;;;;;;1.77;1.30;;;;;;;20.55;62.63;100624.97;5473265;32;34382;-66
2022/08/08 03:58:40;;;;;;;3.92;1.20;;;;;;;20.47;63.13;100622.59;5462924;32;35128;-67
2022/08/08 04:01:50;;;;;;;6.55;1.45;;;;;;;20.52;62.66;100620.06;5473284;32;34575;-67
2022/08/08 04:05:13;;;;;;;4.20;1.52;;;;;;;20.48;67.40;100613.47;5506026;32;33894;-67
2022/08/08 04:08:23;;;;;;;2.50;1.58;;;;;;;20.48;67.06;100613.47;5551605;32;33938;-67
2022/08/08 04:11:41;;;;;;;2.95;1.30;;;;;;;20.34;65.79;100616.31;5550556;32;33427;-66
2022/08/08 04:15:03;;;;;;;2.67;1.52;;;;;;;20.18;67.52;100616.91;5551575;32;33979;-67
2022/08/08 04:18:08;;;;;;;3.42;1.35;;;;;;;20.18;67.07;100614.22;5551612;32;34629;-67
2022/08/08 04:21:19;;;;;;;3.45;1.45;;;;;;;20.32;66.26;100610.34;5551984;32;33868;-67
2022/08/08 04:24:25;;;;;;;4.15;1.70;;;;;;;20.31;67.00;100618.66;5551582;32;34643;-67
2022/08/08 04:27:35;;;;;;;2.65;1.20;;;;;;;20.46;65.14;100634.44;5551118;32;33889;-67
2022/08/08 04:30:58;;;;;;;5.50;1.35;;;;;;;20.36;66.39;100645.75;5551479;32;33890;-68
2022/08/08 04:34:06;;;;;;;3.03;1.80;;;;;;;20.36;66.53;100643.06;5551417;32;33970;-68
2022/08/08 04:37:11;;;;;;;3.45;1.50;;;;;;;20.47;64.17;100649.56;5551688;32;34029;-68
2022/08/08 04:40:14;;;;;;;2.47;1.60;;;;;;;20.46;65.60;100646.03;5550664;32;34513;-68
2022/08/08 04:43:20;;;;;;;6.00;1.60;;;;;;;20.51;65.69;100645.34;5551342;32;34877;-68
2022/08/08 04:46:24;;;;;;;2.40;1.35;;;;;;;20.59;64.35;100640.47;5551270;32;33972;-68
2022/08/08 04:49:33;;;;;;;3.97;1.50;;;;;;;20.67;63.11;100650.16;5551707;32;34436;-68
2022/08/08 04:52:56;;;;;;;3.60;1.60;;;;;;;20.78;62.89;100650.19;5551192;32;33848;-68
2022/08/08 04:56:06;;;;;;;4.22;1.50;;;;;;;21.01;62.07;100656.75;5550701;32;33854;-68
2022/08/08 04:59:09;;;;;;;3.87;1.27;;;;;;;21.05;61.47;100655.22;5551018;32;35219;-68
2022/08/08 05:02:13;;;;;;;1.75;1.30;;;;;;;21.17;61.51;100659.62;5550429;32;34635;-68
2022/08/08 05:05:16;;;;;;;2.72;1.20;;;;;;;21.29;58.99;100661.53;5551042;32;34219;-69
2022/08/08 05:08:42;;;;;;;2.45;1.15;;;;;;;21.39;58.35;100659.94;5551038;32;34017;-69
2022/08/08 05:11:46;;;;;;;2.15;1.17;;;;;;;21.40;57.69;100661.53;5551385;32;34632;-69
2022/08/08 05:14:59;;;;;;;2.37;1.30;;;;;;;21.67;58.75;100662.78;5551351;32;34328;-69
2022/08/08 05:18:07;;;;;;;2.22;1.20;;;;;;;21.58;58.42;100652.56;5537656;32;34146;-69
2022/08/08 05:21:11;;;;;;;3.78;1.40;;;;;;;21.44;57.99;100656.53;5550811;32;34408;-69
2022/08/08 05:24:21;;;;;;;17.80;2.30;;;;;;;21.58;58.12;100661.47;5550605;32;34628;-69
2022/08/08 05:27:28;;;;;;;5.90;1.30;;;;;;;21.68;58.04;100660.91;5550071;32;33252;-69
2022/08/08 05:30:37;;;;;;;3.03;1.10;;;;;;;21.81;57.45;100660.66;5549963;32;34646;-68
2022/08/08 05:33:49;;;;;;;4.75;1.30;;;;;;;21.83;56.86;100663.16;5550891;32;34603;-69
2022/08/08 05:36:53;;;;;;;1.58;1.10;;;;;;;21.86;54.89;100663.50;5549733;32;33892;-69
2022/08/08 05:40:04;;;;;;;3.10;1.48;;;;;;;22.10;55.24;100667.84;5550724;32;34316;-69
2022/08/08 05:43:09;;;;;;;3.92;1.12;;;;;;;22.16;54.28;100665.28;5549941;32;32422;-69
2022/08/08 05:46:34;;;;;;;2.65;1.30;;;;;;;22.34;53.04;100659.72;5549519;32;34781;-68
2022/08/08 05:49:42;;;;;;;9.48;1.30;;;;;;;22.06;53.85;100669.41;5550523;32;34643;-69
2022/08/08 05:52:59;;;;;;;7.28;1.20;;;;;;;22.45;53.95;100665.09;5550508;32;34044;-69
2022/08/08 05:56:22;;;;;;;5.07;1.35;;;;;;;22.29;54.97;100665.84;5549934;32;34033;-69
2022/08/08 05:59:25;;;;;;;4.22;1.10;;;;;;;22.18;54.17;100663.97;5549621;32;34088;-69
2022/08/08 06:03:09;;;;;;;1.60;1.00;;;;;;;22.25;53.79;100671.97;5550016;32;34577;-68
2022/08/08 06:06:30;;;;;;;5.90;1.10;;;;;;;22.14;52.54;100673.59;5550030;32;33980;-68
2022/08/08 06:09:38;;;;;;;3.33;0.90;;;;;;;22.12;51.05;100670.34;5549852;32;33934;-67
2022/08/08 06:13:01;;;;;;;2.17;0.90;;;;;;;21.91;51.35;100669.00;5549729;32;32591;-68
2022/08/08 06:16:09;;;;;;;3.22;0.90;;;;;;;22.08;49.95;100678.06;5550479;32;34323;-68
2022/08/08 06:19:15;;;;;;;1.12;0.80;;;;;;;21.99;50.54;100670.56;5549776;32;34188;-67
2022/08/08 06:22:18;;;;;;;3.83;1.10;;;;;;;22.09;50.13;100674.31;5550598;32;34080;-65
2022/08/08 06:25:42;;;;;;;3.83;1.35;;;;;;;22.09;50.63;100674.31;5550264;32;33990;-70
2022/08/08 06:29:08;;;;;;;3.65;1.20;;;;;;;22.30;49.67;100669.38;5550125;32;34424;-67
2022/08/08 06:32:47;;;;;;;1.95;1.00;;;;;;;22.67;48.71;100680.66;5550311;32;34135;-67
2022/08/08 06:35:57;;;;;;;5.35;0.90;;;;;;;22.99;47.49;100683.78;5549117;32;34584;-66
2022/08/08 06:39:13;;;;;;;1.62;0.95;;;;;;;22.59;47.15;100687.28;5550087;32;35196;-64
2022/08/08 06:42:17;;;;;;;3.35;1.00;;;;;;;22.42;47.25;100687.19;5548923;32;33246;-65
2022/08/08 06:45:23;;;;;;;1.98;1.00;;;;;;;22.32;47.85;100676.16;5549833;32;34058;-67
2022/08/08 06:48:27;;;;;;;1.25;0.90;;;;;;;22.47;47.13;100676.50;5548926;32;32802;-68
2022/08/08 06:51:31;;;;;;;2.20;0.93;;;;;;;22.70;46.84;100680.22;5550257;32;33719;-68
2022/08/08 06:54:57;;;;;;;4.47;1.52;;;;;;;22.69;46.89;100687.50;5550482;32;33921;-68
2022/08/08 06:58:01;;;;;;;1.42;0.90;;;;;;;22.64;46.54;100676.59;5548997;32;32292;-67
2022/08/08 07:01:09;;;;;;;5.10;1.02;;;;;;;22.75;46.56;100678.44;5549633;32;34636;-68
2022/08/08 07:04:45;;;;;;;1.55;0.80;;;;;;;22.77;45.92;100681.75;5549924;32;33931;-67
2022/08/08 07:08:13;;;;;;;2.53;0.80;;;;;;;22.78;46.02;100682.56;5548913;32;33522;-68
2022/08/08 07:11:20;;;;;;;2.75;1.02;;;;;;;22.99;45.62;100687.31;5549869;32;34424;-67
2022/08/08 07:14:40;;;;;;;6.35;0.95;;;;;;;23.28;45.23;100686.25;5549209;32;34411;-67
2022/08/08 07:17:48;;;;;;;2.92;0.80;;;;;;;23.33;45.52;100686.28;5549917;32;35367;-68
2022/08/08 07:21:07;;;;;;;1.85;0.80;;;;;;;23.43;44.28;100685.66;5549795;32;34242;-68
2022/08/08 07:24:32;;;;;;;2.12;0.90;;;;;;;23.89;43.50;100684.56;5549606;32;34889;-68
2022/08/08 07:27:40;;;;;;;2.92;0.90;;;;;;;23.92;42.42;100685.94;5549744;32;34069;-68
2022/08/08 07:31:04;;;;;;;7.72;1.08;;;;;;;24.31;42.75;100693.03;5549594;32;34270;-68
2022/08/08 07:34:09;;;;;;;3.03;1.10;;;;;;;24.57;41.91;100684.19;5549805;32;34003;-68
2022/08/08 07:37:30;;;;;;;5.37;1.30;;;;;;;24.95;41.44;100691.44;5548503;32;33212;-69
2022/08/08 07:40:59;;;;;;;6.75;1.15;;;;;;;24.95;41.45;100691.44;5538660;32;34148;-69
2022/08/08 07:44:08;;;;;;;2.30;1.08;;;;;;;24.86;42.18;100694.81;5536088;32;34147;-67
2022/08/08 07:47:32;;;;;;;9.15;1.25;;;;;;;24.97;42.04;100702.88;5537637;32;32558;-68
2022/08/08 07:50:43;;;;;;;3.95;1.17;;;;;;;25.51;41.57;100694.72;5548473;32;34713;-68
2022/08/08 07:53:56;;;;;;;3.72;1.05;;;;;;;26.29;38.89;100702.13;5548076;32;33011;-68
2022/08/08 07:57:15;;;;;;;7.28;1.25;;;;;;;26.44;38.21;100703.28;5547846;32;34208;-69
2022/08/08 08:00:28;;;;;;;2.40;1.10;;;;;;;25.72;38.93;100706.59;5548144;32;34247;-68
2022/08/08 08:04:01;;;;;;;4.55;1.05;;;;;;;25.74;39.17;100709.88;5548251;32;33810;-67
2022/08/08 08:07:07;;;;;;;2.17;0.90;;;;;;;25.64;39.13;100709.78;5548944;32;34571;-68
2022/08/08 08:10:16;;;;;;;5.43;1.00;;;;;;;25.48;39.75;100722.38;5548553;32;33933;-67
2022/08/08 08:13:35;;;;;;;2.00;1.05;;;;;;;25.96;38.85;100719.56;5536467;32;33588;-67
2022/08/08 08:16:59;;;;;;;4.87;1.10;;;;;;;26.04;38.53;100712.84;5548124;32;34749;-67
2022/08/08 08:20:05;;;;;;;5.47;1.02;;;;;;;25.73;40.15;100710.94;5547170;32;32757;-68
2022/08/08 08:23:12;;;;;;;6.37;0.93;;;;;;;26.67;38.11;100709.13;5548815;32;33963;-67
2022/08/08 08:26:17;;;;;;;3.17;0.90;;;;;;;26.58;38.75;100707.97;5548677;32;35351;-66
2022/08/08 08:29:31;;;;;;;3.87;1.00;;;;;;;26.26;38.80;100710.00;5551479;32;33198;-68
2022/08/08 08:32:34;;;;;;;2.95;1.17;;;;;;;26.91;37.14;100709.53;5550432;32;32924;-68
2022/08/08 08:35:43;;;;;;;1.67;0.80;;;;;;;27.32;36.64;100710.41;5551120;32;33569;-68
2022/08/08 08:39:06;;;;;;;1.25;0.80;;;;;;;28.34;34.85;100708.50;5550596;32;33910;-68
2022/08/08 08:42:20;;;;;;;2.67;0.80;;;;;;;30.07;30.88;100712.69;5550735;32;34129;-68
2022/08/08 08:45:38;;;;;;;;;;;;;;;30.53;30.68;100714.97;5550509;32;34266;-68
2022/08/08 08:48:45;;;;;;;2.35;1.00;;;;;;;30.35;30.33;100732.94;5537557;32;32709;-68
2022/08/08 08:51:53;;;;;;;2.33;0.80;;;;;;;31.69;29.01;100731.72;5550734;32;35114;-69
2022/08/08 08:54:59;;;;;;;2.47;1.10;;;;;;;32.58;27.99;100730.38;5551016;32;34479;-68
2022/08/08 08:58:06;;;;;;;6.55;1.10;;;;;;;33.54;27.37;100735.72;5550656;32;34285;-67
2022/08/08 09:01:12;;;;;;;6.53;0.90;;;;;;;32.64;27.98;100728.37;5550828;32;34739;-68
2022/08/08 09:04:21;;;;;;;4.05;0.90;;;;;;;32.42;27.67;100718.06;5537479;32;33641;-69
2022/08/08 09:07:42;;;;;;;6.60;0.90;;;;;;;32.13;28.02;100734.00;5550946;32;33978;-70
2022/08/08 09:11:07;;;;;;;4.32;1.12;;;;;;;31.20;29.89;100732.19;5551343;32;33983;-69
2022/08/08 09:14:11;;;;;;;3.65;1.10;;;;;;;29.64;32.16;100736.28;5551016;32;33992;-69
2022/08/08 09:17:15;;;;;;;3.55;1.33;;;;;;;29.17;34.08;100733.31;5550785;32;33957;-69
2022/08/08 09:20:39;;;;;;;12.93;1.23;;;;;;;28.60;35.59;100725.63;5550892;32;33647;-69
2022/08/08 09:24:02;;;;;;;6.20;1.15;;;;;;;27.80;36.29;100721.91;5550257;32;32804;-67
2022/08/08 09:27:07;;;;;;;6.62;1.17;;;;;;;27.07;38.42;100715.81;5551052;32;34573;-68
2022/08/08 09:30:17;;;;;;;4.22;1.10;;;;;;;27.11;37.28;100719.66;5549721;32;32847;-68
2022/08/08 09:33:27;;;;;;;8.07;1.48;;;;;;;26.87;38.65;100723.94;5550478;32;34328;-68
2022/08/08 09:37:02;;;;;;;1.87;1.23;;;;;;;26.50;39.89;100722.09;5550897;32;35051;-67
2022/08/08 09:40:29;;;;;;;3.62;1.10;;;;;;;26.57;40.58;100728.13;5550750;32;34056;-69
2022/08/08 09:44:03;;;;;;;8.10;1.33;;;;;;;27.04;40.05;100724.53;5550221;32;34335;-68
2022/08/08 09:47:23;;;;;;;3.17;1.12;;;;;;;27.64;38.87;100724.66;5538229;32;33122;-69
2022/08/08 09:50:46;;;;;;;8.50;1.20;;;;;;;27.62;37.88;100723.28;5549818;32;35175;-68
2022/08/08 09:53:54;;;;;;;3.17;1.08;;;;;;;27.55;37.77;100723.56;5550529;32;33995;-69
2022/08/08 09:57:16;;;;;;;1.75;1.08;;;;;;;27.58;38.10;100720.31;5549301;32;33068;-70
2022/08/08 10:00:24;;;;;;;4.05;1.00;;;;;;;27.82;37.81;100709.66;5537558;32;32823;-68
2022/08/08 10:03:49;;;;;;;59.53;4.65;;;;;;;27.34;39.31;100715.59;5550611;32;33930;-70
2022/08/08 10:07:01;;;;;;;5.35;1.20;;;;;;;27.17;38.77;100713.12;5550359;32;34102;-68
2022/08/08 10:10:10;;;;;;;4.40;1.17;;;;;;;26.96;39.05;100706.81;5549815;32;33404;-68
2022/08/08 10:13:21;;;;;;;4.47;1.10;;;;;;;26.82;39.43;100708.34;5550574;32;33930;-69
2022/08/08 10:16:38;;;;;;;3.80;1.10;;;;;;;27.21;38.43;100706.03;5550523;32;34614;-68
2022/08/08 10:19:41;;;;;;;1.42;1.00;;;;;;;26.99;39.14;100706.28;5549861;32;34547;-67
2022/08/08 10:23:01;;;;;;;3.17;1.07;;;;;;;26.72;39.34;100713.78;5549789;32;34552;-68
2022/08/08 10:26:04;;;;;;;1.40;1.10;;;;;;;27.06;39.32;100714.19;5537033;32;33187;-69
2022/08/08 10:29:30;;;;;;;5.22;1.10;;;;;;;27.59;38.44;100710.22;5543693;32;212162;-69
2022/08/08 10:32:56;;;;;;;6.10;1.20;;;;;;;28.04;37.46;100714.81;5550293;32;33952;-69
2022/08/08 10:36:03;;;;;;;4.18;1.17;;;;;;;27.74;38.18;100712.13;5550054;32;34747;-68
2022/08/08 10:39:27;;;;;;;2.10;1.27;;;;;;;27.89;38.77;100723.00;5549902;32;33636;-69
2022/08/08 10:43:03;;;;;;;5.10;1.23;;;;;;;27.37;38.71;100713.16;5549468;32;34226;-69
2022/08/08 10:46:30;;;;;;;4.45;1.20;;;;;;;27.49;38.37;100707.50;5549560;32;32800;-69
2022/08/08 10:49:32;;;;;;;3.78;1.40;;;;;;;27.07;39.00;100696.75;5549551;32;34240;-68
2022/08/08 10:53:03;;;;;;;3.37;1.23;;;;;;;26.79;39.68;100696.09;5549565;32;33187;-69
2022/08/08 10:56:18;;;;;;;3.62;1.50;;;;;;;26.38;41.02;100697.03;5537830;32;32327;-69
2022/08/08 10:59:33;;;;;;;4.68;1.37;;;;;;;26.46;41.52;100695.69;5549497;32;33074;-68
2022/08/08 11:02:42;;;;;;;3.75;1.42;;;;;;;26.44;41.74;100690.50;5549417;32;33213;-69
2022/08/08 11:05:50;;;;;;;3.40;1.40;;;;;;;26.26;42.16;100686.34;5549625;32;32556;-66
2022/08/08 11:09:09;;;;;;;3.85;1.30;;;;;;;26.14;42.92;100693.03;5550380;32;34563;-69
2022/08/08 11:12:23;;;;;;;5.03;1.37;;;;;;;26.76;41.69;100685.75;5549871;32;33691;-67
2022/08/08 11:15:30;;;;;;;2.83;1.20;;;;;;;26.83;41.74;100693.66;5536804;32;33004;-66
2022/08/08 11:18:36;;;;;;;2.05;1.20;;;;;;;27.47;40.07;100698.72;5550244;32;34153;-69
2022/08/08 11:21:44;;;;;;;6.17;1.50;;;;;;;28.58;38.99;100705.97;5549227;32;33546;-65
2022/08/08 11:25:03;;;;;;;6.78;1.67;;;;;;;28.36;39.70;100690.78;5549744;32;33727;-67
2022/08/08 11:28:23;;;;;;;3.25;1.30;;;;;;;28.26;40.37;100696.25;5549541;32;34386;-68
2022/08/08 11:31:34;;;;;;;3.28;1.73;;;;;;;27.58;41.65;100723.03;5549753;32;33941;-68
2022/08/08 11:34:54;;;;;;;3.60;1.35;;;;;;;27.70;42.25;100713.75;5549643;32;33830;-69
2022/08/08 11:38:17;;;;;;;12.35;1.65;;;;;;;27.88;42.54;100707.75;5548914;32;32464;-67
2022/08/08 11:41:42;;;;;;;5.95;1.40;;;;;;;27.62;43.99;100696.84;5548736;32;34649;-68
2022/08/08 11:44:48;;;;;;;4.90;1.90;;;;;;;27.78;44.46;100705.03;5536111;32;33266;-69
2022/08/08 11:47:53;;;;;;;13.93;2.20;;;;;;;26.98;47.85;100709.25;5548392;32;32550;-67
2022/08/08 11:51:09;;;;;;;4.60;2.30;;;;;;;26.05;51.56;100703.56;5549501;32;34644;-67
2022/08/08 11:54:34;;;;;;;4.47;2.00;;;;;;;25.83;53.66;100701.00;5548746;32;34734;-68
2022/08/08 11:57:46;;;;;;;7.50;2.45;;;;;;;25.83;54.82;100711.03;5548083;32;33171;-67
2022/08/08 12:00:57;;;;;;;4.95;2.25;;;;;;;24.63;57.48;100712.19;5549119;32;33990;-68
2022/08/08 12:04:15;;;;;;;4.78;2.62;;;;;;;24.32;59.41;100713.69;5551616;32;33977;-70
2022/08/08 12:07:20;;;;;;;4.90;2.37;;;;;;;24.50;59.22;100716.09;5550862;32;35316;-69
2022/08/08 12:10:29;;;;;;;5.20;2.10;;;;;;;24.11;60.12;100707.09;5551522;32;35104;-70
2022/08/08 12:13:33;;;;;;;6.05;2.42;;;;;;;24.00;60.84;100704.50;5551634;32;33823;-68
2022/08/08 12:16:56;;;;;;;3.85;2.37;;;;;;;23.92;60.81;100704.91;5551383;32;34144;-69
2022/08/08 12:19:59;;;;;;;4.85;2.30;;;;;;;23.68;62.09;100710.50;5551387;32;34594;-66
2022/08/08 12:23:02;;;;;;;7.37;2.60;;;;;;;24.07;61.17;100705.97;5551795;32;33902;-68
2022/08/08 12:26:09;;;;;;;5.05;2.78;;;;;;;24.03;62.80;100702.09;5550499;32;33412;-67
2022/08/08 12:29:32;;;;;;;7.05;2.70;;;;;;;23.90;63.79;100717.91;5550294;32;32548;-66
2022/08/08 12:32:46;;;;;;;6.22;2.72;;;;;;;23.35;65.73;100732.91;5550608;32;32859;-65
2022/08/08 12:35:49;;;;;;;3.97;2.60;;;;;;;23.06;66.83;100738.56;5551382;32;33919;-67
2022/08/08 12:38:54;;;;;;;5.10;2.60;;;;;;;22.89;67.90;100735.81;5551407;32;34350;-65
2022/08/08 12:42:01;;;;;;;3.75;2.60;;;;;;;23.06;67.68;100723.16;5550757;32;32346;-67
2022/08/08 12:45:09;;;;;;;8.52;2.80;;;;;;;23.27;65.77;100725.19;5550821;32;34004;-67
2022/08/08 12:48:32;;;;;;;4.25;2.37;;;;;;;23.04;66.92;100719.06;5551342;32;34546;-67
2022/08/08 12:51:49;;;;;;;3.65;2.45;;;;;;;23.46;65.47;100730.41;5550771;32;34058;-67
2022/08/08 12:55:14;;;;;;;3.20;2.72;;;;;;;22.78;69.65;100726.66;5551150;32;34085;-67
2022/08/08 12:58:48;;;;;;;6.47;3.03;;;;;;;22.83;70.74;100726.78;5550206;32;33743;-67
2022/08/08 13:01:56;;;;;;;4.30;2.92;;;;;;;22.38;73.87;100734.69;5551122;32;34705;-68
2022/08/08 13:05:04;;;;;;;4.12;3.40;;;;;;;22.61;73.59;100746.56;5551127;32;35349;-70
2022/08/08 13:08:23;;;;;;;6.37;3.55;;;;;;;22.37;75.71;100743.03;5550387;32;34238;-69
2022/08/08 13:11:37;;;;;;;5.70;3.20;;;;;;;22.31;76.39;100747.53;5550925;32;34630;-69
2022/08/08 13:15:05;;;;;;;3.65;3.12;;;;;;;22.65;75.06;100753.94;5550702;32;33955;-69
2022/08/08 13:18:08;;;;;;;5.50;3.40;;;;;;;23.12;72.25;100749.25;5551009;32;33980;-66
2022/08/08 13:21:16;;;;;;;4.97;2.65;;;;;;;23.10;71.12;100740.56;5550141;32;32669;-66
2022/08/08 13:24:19;;;;;;;5.43;2.65;;;;;;;23.10;71.56;100739.72;5550189;32;33562;-69
2022/08/08 13:27:43;;;;;;;2.83;2.60;;;;;;;23.52;68.60;100743.00;5549914;32;34226;-66
2022/08/08 13:30:49;;;;;;;2.60;2.40;;;;;;;24.07;66.70;100740.38;5550478;32;34788;-70
2022/08/08 13:33:52;;;;;;;7.43;2.80;;;;;;;25.00;62.81;100736.81;5550633;32;33890;-69
2022/08/08 13:36:56;;;;;;;5.28;2.78;;;;;;;24.88;62.39;100738.87;5537098;32;33632;-67
2022/08/08 13:40:04;;;;;;;4.68;2.60;;;;;;;23.94;65.84;100743.44;5549889;32;34720;-69
2022/08/08 13:43:07;;;;;;;5.00;2.28;;;;;;;23.98;66.15;100741.84;5550244;32;34705;-69
2022/08/08 13:46:12;;;;;;;7.07;2.60;;;;;;;24.82;62.81;100737.94;5550533;32;34048;-68
2022/08/08 13:49:30;;;;;;;5.87;2.85;;;;;;;24.12;65.39;100743.16;5549372;32;32612;-69
2022/08/08 13:52:54;;;;;;;4.55;2.47;;;;;;;23.71;66.43;100739.81;5549633;32;34780;-68
2022/08/08 13:55:59;;;;;;;6.75;2.45;;;;;;;23.65;67.07;100735.37;5550231;32;33992;-68
2022/08/08 13:59:04;;;;;;;9.93;2.35;;;;;;;24.63;61.81;100718.44;5549288;32;35376;-68
2022/08/08 14:02:19;;;;;;;3.62;2.40;;;;;;;26.01;57.28;100736.97;5536549;32;33137;-70
2022/08/08 14:05:27;;;;;;;5.60;2.22;;;;;;;26.32;55.44;100723.38;5550318;32;34017;-68
2022/08/08 14:08:43;;;;;;;5.53;2.10;;;;;;;25.63;56.60;100730.72;5550073;32;33851;-70
2022/08/08 14:11:48;;;;;;;4.82;2.08;;;;;;;24.86;58.80;100732.81;5536833;32;32326;-69
2022/08/08 14:14:50;;;;;;;2.75;1.62;;;;;;;24.68;59.79;100725.84;5548946;32;32535;-69
2022/08/08 14:17:58;;;;;;;4.12;2.10;;;;;;;24.94;59.18;100719.66;5549903;32;34039;-67
2022/08/08 14:21:37;;;;;;;2.12;1.67;;;;;;;25.09;57.01;100711.69;5549847;32;34685;-65
2022/08/08 14:24:47;;;;;;;3.65;1.73;;;;;;;24.63;56.55;100723.06;5548521;32;34891;-69
2022/08/08 14:27:51;;;;;;;2.75;1.77;;;;;;;24.92;54.89;100719.09;5549747;32;35305;-68
2022/08/08 14:31:08;;;;;;;1.92;1.67;;;;;;;25.10;54.19;100724.19;5549124;32;34122;-66
2022/08/08 14:34:12;;;;;;;2.15;1.73;;;;;;;24.50;56.47;100718.81;5549606;32;34037;-68
2022/08/08 14:37:25;;;;;;;2.45;1.85;;;;;;;24.26;57.71;100720.09;5548857;32;33497;-69
2022/08/08 14:40:46;;;;;;;5.22;2.00;;;;;;;23.99;59.12;100716.41;5549210;32;33841;-67
2022/08/08 14:43:55;;;;;;;4.45;1.70;;;;;;;23.87;58.96;100702.94;5548950;32;34677;-70
2022/08/08 14:47:14;;;;;;;5.07;1.80;;;;;;;24.09;57.33;100701.13;5548673;32;34282;-67
2022/08/08 14:50:25;;;;;;;;;;;;;;;24.33;55.44;100709.06;5548697;32;32912;-69
2022/08/08 14:53:42;;;;;;;2.90;1.58;;;;;;;25.03;53.02;100709.97;5547829;32;34350;-68
2022/08/08 14:56:58;;;;;;;2.40;1.60;;;;;;;24.80;53.57;100712.13;5547956;32;32818;-69
2022/08/08 15:00:07;;;;;;;3.67;1.80;;;;;;;24.75;53.68;100710.16;5548846;32;34001;-69
2022/08/08 15:03:10;;;;;;;3.12;1.50;;;;;;;25.12;52.64;100712.25;5548562;32;32455;-68
2022/08/08 15:06:17;;;;;;;2.60;1.50;;;;;;;25.36;52.01;100716.31;5548235;32;32827;-67
2022/08/08 15:09:24;;;;;;;1.80;1.37;;;;;;;25.20;52.52;100709.06;5548126;32;33883;-68
2022/08/08 15:12:27;;;;;;;2.58;1.60;;;;;;;24.84;53.93;100714.06;5547553;32;34729;-69
2022/08/08 15:15:31;;;;;;;3.75;1.20;;;;;;;25.16;53.82;100711.50;5548411;32;34320;-69
2022/08/08 15:18:54;;;;;;;2.08;1.60;;;;;;;25.24;52.64;100711.03;5537638;32;33164;-69
2022/08/08 15:21:57;;;;;;;4.95;1.75;;;;;;;25.17;53.35;100709.59;5548438;32;32718;-68
2022/08/08 15:25:00;;;;;;;6.32;2.20;;;;;;;25.12;56.22;100704.94;5548158;32;32525;-69
2022/08/08 15:28:11;;;;;;;3.35;1.95;;;;;;;24.34;61.57;100708.00;5535730;32;33633;-68